Time;durP1;ratioP1;P1;durP2;ratioP2;P2;SDS_P1;SDS_P2;PMS_P1;PMS_P2;Temp;Humidity;BMP_temperature;BMP_pressure;BME280_temperature;BME280_humidity;BME280_pressure;Samples;Min_cycle;Max_cycle;Signal;HPM_P1;HPM_P2
2023/05/30 00:01:39;;;;;;;10.17;3.73;;;12.10;1.00;;;;;;5094009;28;20211;-69
2023/05/30 00:04:05;;;;;;;13.63;3.60;;;12.10;1.00;;;;;;5093963;28;20211;-69
2023/05/30 00:06:31;;;;;;;12.53;3.47;;;12.10;1.00;;;;;;5093847;28;20172;-70
2023/05/30 00:08:57;;;;;;;7.10;3.30;;;12.00;1.00;;;;;;5093787;28;20176;-69
2023/05/30 00:11:24;;;;;;;10.30;3.20;;;12.00;1.00;;;;;;5094031;28;20175;-70
2023/05/30 00:13:50;;;;;;;8.90;2.83;;;11.90;1.00;;;;;;5094107;28;20168;-70
2023/05/30 00:16:19;;;;;;;12.20;3.40;;;12.00;1.00;;;;;;5094140;28;20627;-69
2023/05/30 00:18:48;;;;;;;10.97;3.50;;;11.90;1.00;;;;;;5093979;28;20170;-69
2023/05/30 00:21:17;;;;;;;20.27;4.27;;;11.90;1.00;;;;;;5093624;28;20634;-70
2023/05/30 00:23:45;;;;;;;8.10;2.80;;;11.80;1.00;;;;;;5093471;28;20195;-70
2023/05/30 00:26:11;;;;;;;9.37;2.97;;;11.80;1.00;;;;;;5093752;28;20210;-69
2023/05/30 00:28:37;;;;;;;9.40;3.40;;;11.80;1.00;;;;;;5093622;28;20254;-70
2023/05/30 00:31:03;;;;;;;12.67;3.93;;;11.80;1.00;;;;;;5093659;28;20201;-70
2023/05/30 00:33:29;;;;;;;12.13;2.90;;;11.70;1.00;;;;;;5092591;28;20220;-69
2023/05/30 00:35:55;;;;;;;13.70;3.30;;;11.70;1.00;;;;;;5093203;28;20167;-70
2023/05/30 00:38:20;;;;;;;9.70;2.93;;;11.70;1.00;;;;;;5093591;28;20171;-70
2023/05/30 00:40:46;;;;;;;11.30;3.27;;;11.70;1.00;;;;;;5093582;28;20619;-70
2023/05/30 00:43:12;;;;;;;10.37;3.13;;;11.60;1.00;;;;;;5093361;28;20593;-70
2023/05/30 00:45:38;;;;;;;10.10;3.43;;;11.60;1.00;;;;;;5093561;28;20634;-69
2023/05/30 00:48:04;;;;;;;17.50;3.57;;;11.60;1.00;;;;;;5093421;28;20164;-69
2023/05/30 00:50:32;;;;;;;13.30;3.30;;;11.50;1.00;;;;;;5092908;28;20168;-70
2023/05/30 00:52:59;;;;;;;11.13;3.03;;;11.50;1.00;;;;;;5093435;28;20175;-69
2023/05/30 00:55:26;;;;;;;13.90;3.37;;;11.50;1.00;;;;;;5093183;28;20171;-68
2023/05/30 00:57:52;;;;;;;11.73;3.30;;;11.40;1.00;;;;;;5093284;28;20195;-68
2023/05/30 01:00:19;;;;;;;12.63;3.33;;;11.40;1.00;;;;;;5093192;28;20164;-70
2023/05/30 01:02:47;;;;;;;13.20;3.57;;;11.40;1.00;;;;;;5093190;28;20220;-69
2023/05/30 01:05:14;;;;;;;11.80;3.80;;;11.40;1.00;;;;;;5092641;28;20191;-69
2023/05/30 01:07:48;;;;;;;17.13;3.73;;;11.30;1.00;;;;;;5093233;28;20176;-69
2023/05/30 01:10:15;;;;;;;9.93;3.43;;;11.30;1.00;;;;;;5093194;28;20164;-70
2023/05/30 01:12:47;;;;;;;15.80;3.30;;;11.30;1.00;;;;;;5093359;28;20172;-68
2023/05/30 01:15:27;;;;;;;12.57;2.83;;;11.20;1.00;;;;;;5092080;28;20577;-69
2023/05/30 01:18:11;;;;;;;12.70;3.53;;;11.20;1.00;;;;;;5093051;28;20214;-70
2023/05/30 01:20:40;;;;;;;9.20;2.87;;;11.20;1.00;;;;;;5092729;28;20189;-70
2023/05/30 01:23:43;;;;;;;19.30;3.87;;;11.10;1.00;;;;;;5092908;28;20212;-70
2023/05/30 01:26:17;;;;;;;12.83;3.30;;;11.10;1.00;;;;;;5073890;28;20222;-69
2023/05/30 01:28:46;;;;;;;11.47;3.33;;;11.00;1.00;;;;;;5093026;28;20259;-69
2023/05/30 01:31:12;;;;;;;17.90;3.40;;;11.00;1.00;;;;;;5093054;28;20183;-69
2023/05/30 01:33:39;;;;;;;10.33;2.53;;;11.00;1.00;;;;;;5092222;28;20224;-69
2023/05/30 01:36:05;;;;;;;12.40;3.00;;;11.00;1.00;;;;;;5092932;28;20168;-69
2023/05/30 01:38:30;;;;;;;9.50;3.23;;;11.00;1.00;;;;;;5092845;28;20172;-68
2023/05/30 01:40:58;;;;;;;18.07;3.47;;;10.90;1.00;;;;;;5093020;28;20689;-70
2023/05/30 01:44:02;;;;;;;10.97;3.50;;;11.00;1.00;;;;;;5092772;28;20241;-70
2023/05/30 01:46:37;;;;;;;13.60;3.13;;;10.90;1.00;;;;;;5087819;28;20179;-69
2023/05/30 01:49:12;;;;;;;10.63;2.70;;;10.80;1.00;;;;;;5096187;28;20179;-69
2023/05/30 01:51:47;;;;;;;11.10;3.30;;;10.80;1.00;;;;;;5096731;28;20217;-69
2023/05/30 01:54:17;;;;;;;11.00;2.73;;;10.80;1.00;;;;;;5096770;28;20171;-69
2023/05/30 01:56:46;;;;;;;17.30;3.77;;;10.80;1.00;;;;;;5095252;28;20172;-69
2023/05/30 01:59:14;;;;;;;18.17;3.50;;;10.80;1.00;;;;;;5096446;28;20251;-69
2023/05/30 02:01:40;;;;;;;9.53;2.97;;;10.70;1.00;;;;;;5096333;28;20184;-70
2023/05/30 02:04:05;;;;;;;9.77;2.90;;;10.70;1.00;;;;;;5096338;28;20265;-70
2023/05/30 02:06:31;;;;;;;10.17;3.10;;;10.60;3.80;;;;;;5096453;28;20168;-68
2023/05/30 02:08:57;;;;;;;15.93;3.43;;;10.60;6.90;;;;;;5096276;28;20179;-69
2023/05/30 02:11:22;;;;;;;11.80;3.57;;;10.60;10.80;;;;;;5096394;28;20248;-69
2023/05/30 02:13:48;;;;;;;11.97;3.20;;;10.60;12.90;;;;;;5096120;28;20183;-68
2023/05/30 02:16:15;;;;;;;14.30;3.77;;;10.60;15.60;;;;;;5096024;28;20179;-69
2023/05/30 02:18:41;;;;;;;14.10;3.43;;;10.50;19.90;;;;;;5095633;28;20218;-69
2023/05/30 02:21:08;;;;;;;14.87;3.53;;;10.50;23.10;;;;;;5096444;28;20207;-70
2023/05/30 02:23:34;;;;;;;15.93;3.53;;;10.50;27.50;;;;;;5095829;28;20344;-69
2023/05/30 02:26:00;;;;;;;9.73;2.30;;;10.40;30.80;;;;;;5095926;28;20175;-69
2023/05/30 02:28:25;;;;;;;9.53;3.30;;;10.40;37.40;;;;;;5095828;28;20164;-68
2023/05/30 02:30:51;;;;;;;8.07;3.33;;;10.30;41.00;;;;;;5095961;28;20176;-69
2023/05/30 02:33:17;;;;;;;12.07;3.50;;;10.40;43.90;;;;;;5095065;28;20226;-69
2023/05/30 02:35:42;;;;;;;13.27;3.47;;;10.40;48.30;;;;;;5094391;28;20561;-69
2023/05/30 02:38:08;;;;;;;14.77;3.50;;;10.30;51.60;;;;;;5095726;28;20164;-69
2023/05/30 02:40:33;;;;;;;10.60;3.57;;;10.30;56.00;;;;;;5095590;28;20176;-70
2023/05/30 02:42:59;;;;;;;14.20;3.13;;;10.20;59.40;;;;;;5095395;28;20733;-70
2023/05/30 02:45:25;;;;;;;12.83;3.80;;;10.20;66.30;;;;;;5095610;28;20193;-69
2023/05/30 02:47:50;;;;;;;9.83;3.70;;;10.20;72.60;;;;;;5095387;28;20267;-70
2023/05/30 02:50:16;;;;;;;15.33;3.87;;;10.10;79.70;;;;;;5095377;28;20210;-69
2023/05/30 02:52:42;;;;;;;14.87;3.27;;;10.10;84.20;;;;;;5095709;28;20256;-69
2023/05/30 02:55:08;;;;;;;22.93;3.80;;;10.10;86.50;;;;;;5095251;28;20180;-69
2023/05/30 02:57:33;;;;;;;13.87;3.97;;;10.10;90.50;;;;;;5094204;28;20635;-69
2023/05/30 03:00:03;;;;;;;14.80;4.23;;;10.10;93.10;;;;;;5094733;28;20164;-69
2023/05/30 03:02:30;;;;;;;20.20;4.47;;;10.10;95.30;;;;;;5094812;28;20175;-69
2023/05/30 03:04:55;;;;;;;16.60;3.47;;;10.10;97.10;;;;;;5095033;28;20215;-69
2023/05/30 03:07:22;;;;;;;13.53;3.73;;;10.00;99.90;;;;;;5095063;28;20164;-68
2023/05/30 03:09:48;;;;;;;16.67;3.93;;;10.00;99.90;;;;;;5095022;28;20254;-69
2023/05/30 03:12:14;;;;;;;21.97;4.00;;;10.00;99.90;;;;;;5094667;28;20640;-69
2023/05/30 03:14:40;;;;;;;17.90;4.27;;;10.00;99.90;;;;;;5095019;28;20179;-70
2023/05/30 03:17:06;;;;;;;16.30;3.73;;;9.90;99.90;;;;;;5094498;28;20649;-69
2023/05/30 03:19:32;;;;;;;15.67;3.60;;;10.00;99.90;;;;;;5094758;28;20194;-70
2023/05/30 03:21:57;;;;;;;16.63;3.80;;;9.90;99.90;;;;;;5094774;28;20582;-70
2023/05/30 03:24:23;;;;;;;16.53;4.20;;;9.90;99.90;;;;;;5094596;28;20208;-70
2023/05/30 03:26:49;;;;;;;16.67;4.03;;;9.90;99.90;;;;;;5094589;28;20172;-70
2023/05/30 03:29:15;;;;;;;13.63;3.90;;;9.90;99.90;;;;;;5094497;28;20179;-70
2023/05/30 03:31:41;;;;;;;18.73;4.67;;;10.00;99.90;;;;;;5093759;28;20582;-70
2023/05/30 03:34:07;;;;;;;16.17;4.17;;;9.80;99.90;;;;;;5094070;28;20231;-70
2023/05/30 03:36:32;;;;;;;18.90;4.03;;;9.80;99.90;;;;;;5094186;28;20172;-69
2023/05/30 03:38:58;;;;;;;14.57;4.23;;;9.80;99.90;;;;;;5094397;28;20172;-69
2023/05/30 03:41:24;;;;;;;9.63;3.47;;;9.70;99.90;;;;;;5094134;28;20291;-68
2023/05/30 03:43:50;;;;;;;21.50;4.80;;;9.70;99.90;;;;;;5093733;28;20206;-69
2023/05/30 03:46:16;;;;;;;16.20;4.20;;;9.80;99.90;;;;;;5094059;28;20164;-68
2023/05/30 03:48:42;;;;;;;14.00;3.80;;;9.80;99.90;;;;;;5094429;28;20175;-69
2023/05/30 03:51:08;;;;;;;15.50;4.83;;;9.80;99.90;;;;;;5093674;28;20171;-70
2023/05/30 03:53:34;;;;;;;9.80;3.80;;;9.90;99.90;;;;;;5093457;28;20195;-71
2023/05/30 03:55:59;;;;;;;16.17;4.10;;;10.00;99.90;;;;;;5093791;28;20190;-70
2023/05/30 03:58:25;;;;;;;18.87;4.27;;;10.00;99.90;;;;;;5093499;28;20210;-70
2023/05/30 04:00:51;;;;;;;15.50;4.27;;;10.10;99.90;;;;;;5093755;28;20203;-69
2023/05/30 04:03:19;;;;;;;15.77;4.10;;;10.20;99.90;;;;;;5093770;28;20777;-69
2023/05/30 04:05:47;;;;;;;16.77;4.40;;;10.30;99.90;;;;;;5093704;28;20210;-69
2023/05/30 04:08:13;;;;;;;17.23;4.80;;;10.40;99.90;;;;;;5093319;28;20656;-70
2023/05/30 04:10:39;;;;;;;16.87;4.63;;;10.50;99.90;;;;;;5093393;28;20176;-69
2023/05/30 04:13:05;;;;;;;14.87;4.23;;;10.60;97.70;;;;;;5093417;28;20187;-71
2023/05/30 04:15:30;;;;;;;15.83;4.10;;;10.70;97.70;;;;;;5093781;28;20243;-70
2023/05/30 04:17:57;;;;;;;17.93;4.73;;;10.90;87.50;;;;;;5093561;28;20567;-69
2023/05/30 04:20:24;;;;;;;16.53;4.43;;;11.00;78.80;;;;;;5093760;28;20179;-70
2023/05/30 04:22:50;;;;;;;21.10;4.63;;;10.90;76.80;;;;;;5093314;28;20169;-70
2023/05/30 04:25:16;;;;;;;14.63;4.13;;;11.10;79.00;;;;;;5093812;28;20509;-70
2023/05/30 04:27:43;;;;;;;17.20;4.63;;;11.40;45.20;;;;;;5093120;28;20195;-70
2023/05/30 04:30:10;;;;;;;14.77;3.53;;;11.70;44.80;;;;;;5093039;28;20221;-70
2023/05/30 04:32:35;;;;;;;16.20;4.83;;;12.00;19.10;;;;;;5092977;28;20208;-69
2023/05/30 04:35:05;;;;;;;17.47;4.20;;;12.10;12.00;;;;;;5093038;28;20176;-69
2023/05/30 04:37:33;;;;;;;18.63;4.70;;;12.20;8.40;;;;;;5093100;28;20168;-70
2023/05/30 04:39:59;;;;;;;17.27;4.37;;;12.10;10.50;;;;;;5093207;28;20186;-69
2023/05/30 04:42:28;;;;;;;22.03;4.77;;;12.60;1.00;;;;;;5092234;28;20187;-68
2023/05/30 04:44:54;;;;;;;16.40;4.73;;;12.60;1.00;;;;;;5092858;28;20207;-70
2023/05/30 04:47:24;;;;;;;18.37;4.60;;;12.70;1.00;;;;;;5092856;28;20243;-68
2023/05/30 04:49:53;;;;;;;18.47;4.77;;;12.80;1.00;;;;;;5092526;28;20176;-69
2023/05/30 04:52:23;;;;;;;22.17;4.20;;;12.90;1.00;;;;;;5092467;28;20176;-69
2023/05/30 04:54:48;;;;;;;13.10;4.00;;;13.30;1.00;;;;;;5092336;28;20657;-69
2023/05/30 04:57:14;;;;;;;14.13;4.03;;;13.50;1.00;;;;;;5092590;28;20160;-69
2023/05/30 04:59:40;;;;;;;18.67;3.97;;;13.90;1.00;;;;;;5092196;28;20178;-68
2023/05/30 05:02:06;;;;;;;18.40;4.30;;;14.00;1.00;;;;;;5092576;28;20192;-69
2023/05/30 05:04:32;;;;;;;15.73;4.13;;;14.00;1.00;;;;;;5092462;28;20211;-69
2023/05/30 05:06:58;;;;;;;14.73;4.33;;;14.50;1.00;;;;;;5092601;28;20168;-68
2023/05/30 05:09:26;;;;;;;14.57;4.20;;;14.80;1.00;;;;;;5092544;28;20634;-70
2023/05/30 05:11:56;;;;;;;15.30;4.30;;;14.70;1.00;;;;;;5091905;28;20729;-70
2023/05/30 05:14:22;;;;;;;13.40;3.73;;;14.70;1.00;;;;;;5092446;28;20183;-70
2023/05/30 05:16:48;;;;;;;11.40;3.80;;;14.60;1.00;;;;;;5092481;28;20655;-70
2023/05/30 05:19:14;;;;;;;12.13;3.90;;;15.20;1.00;;;;;;5092257;28;20615;-69
2023/05/30 05:21:40;;;;;;;27.93;4.20;;;15.20;1.00;;;;;;5096404;28;20228;-70
2023/05/30 05:24:07;;;;;;;25.90;5.20;;;15.20;1.00;;;;;;5096576;28;20207;-69
2023/05/30 05:26:33;;;;;;;19.27;4.30;;;14.70;1.00;;;;;;5096078;28;20176;-69
2023/05/30 05:29:00;;;;;;;13.73;4.27;;;14.40;1.00;;;;;;5096524;28;20179;-70
2023/05/30 05:31:26;;;;;;;14.07;4.13;;;14.60;1.00;;;;;;5095717;28;20176;-71
2023/05/30 05:33:51;;;;;;;16.73;4.20;;;15.20;1.00;;;;;;5094770;28;20330;-69
2023/05/30 05:36:18;;;;;;;16.97;4.10;;;15.40;1.00;;;;;;5095799;28;20221;-70
2023/05/30 05:38:43;;;;;;;18.17;4.10;;;15.30;1.00;;;;;;5095689;28;20184;-71
2023/05/30 05:41:09;;;;;;;18.63;4.80;;;15.70;99.90;;;;;;5094788;28;20163;-71
2023/05/30 05:43:35;;;;;;;13.87;4.67;;;15.40;1.00;;;;;;5096017;28;20200;-71
2023/05/30 05:46:01;;;;;;;16.40;4.07;;;15.40;1.00;;;;;;5095823;28;20198;-72
2023/05/30 05:48:27;;;;;;;13.73;4.00;;;16.20;97.90;;;;;;5095106;28;20254;-70
2023/05/30 05:50:52;;;;;;;11.90;4.23;;;16.10;99.90;;;;;;5094974;28;20172;-71
2023/05/30 05:53:18;;;;;;;15.03;4.10;;;16.50;1.00;;;;;;5094693;28;20229;-71
2023/05/30 05:55:45;;;;;;;11.57;3.97;;;16.10;1.00;;;;;;5094715;28;20243;-70
2023/05/30 05:58:11;;;;;;;12.00;3.90;;;15.60;99.90;;;;;;5095496;28;20175;-71
2023/05/30 06:00:37;;;;;;;10.83;4.00;;;15.60;99.90;;;;;;5095280;28;20192;-73
2023/05/30 06:03:03;;;;;;;14.40;4.40;;;16.10;99.90;;;;;;5094652;28;20168;-72
2023/05/30 06:05:28;;;;;;;12.23;4.17;;;16.20;1.00;;;;;;5094335;28;20187;-69
2023/05/30 06:07:57;;;;;;;13.80;4.33;;;15.40;1.00;;;;;;5095205;28;20209;-71
2023/05/30 06:10:23;;;;;;;13.27;4.50;;;15.30;1.00;;;;;;5094471;28;20627;-72
2023/05/30 06:12:49;;;;;;;11.73;4.10;;;15.50;99.90;;;;;;5095146;28;20179;-71
2023/05/30 06:15:15;;;;;;;15.03;4.80;;;15.80;99.90;;;;;;5094231;28;20639;-72
2023/05/30 06:17:40;;;;;;;16.07;4.97;;;16.50;1.00;;;;;;5094932;28;20626;-71
2023/05/30 06:20:07;;;;;;;16.87;4.37;;;16.40;1.00;;;;;;5095159;28;20218;-72
2023/05/30 06:22:32;;;;;;;14.73;4.43;;;16.90;1.00;;;;;;5094218;28;20326;-72
2023/05/30 06:24:58;;;;;;;12.93;4.43;;;17.00;1.00;;;;;;5093971;28;20322;-73
2023/05/30 06:27:24;;;;;;;12.20;4.30;;;17.50;1.00;;;;;;5095239;28;20168;-73
2023/05/30 06:29:49;;;;;;;15.45;4.50;;;17.90;1.00;;;;;;5094511;28;20229;-72
2023/05/30 06:32:15;;;;;;;16.52;4.63;;;18.60;99.90;;;;;;5092907;28;20187;-72
2023/05/30 06:34:41;;;;;;;13.85;5.10;;;17.90;1.00;;;;;;5095218;28;20613;-72
2023/05/30 06:37:06;;;;;;;16.15;4.43;;;17.80;99.90;;;;;;5094677;28;20542;-71
2023/05/30 06:39:32;;;;;;;13.45;5.00;;;18.30;1.00;;;;;;5094156;28;20176;-73
2023/05/30 06:41:57;;;;;;;13.70;4.75;;;19.20;1.00;;;;;;5094960;28;20631;-72
2023/05/30 06:44:23;;;;;;;15.68;4.68;;;19.00;3.10;;;;;;5094333;28;20242;-71
2023/05/30 06:46:49;;;;;;;14.05;4.72;;;17.80;99.90;;;;;;5094525;28;20164;-71
2023/05/30 06:49:15;;;;;;;14.43;4.67;;;16.50;99.90;;;;;;5094393;28;20222;-72
2023/05/30 06:51:41;;;;;;;11.40;4.50;;;15.90;1.00;;;;;;5094056;28;20172;-72
2023/05/30 06:54:06;;;;;;;13.53;5.00;;;16.30;1.00;;;;;;5093663;28;20280;-73
2023/05/30 06:56:32;;;;;;;16.63;5.37;;;16.50;99.90;;;;;;5094281;28;20175;-71
2023/05/30 06:58:58;;;;;;;16.53;5.27;;;17.50;1.00;;;;;;5093876;28;20163;-72
2023/05/30 07:01:23;;;;;;;12.85;4.78;;;18.00;99.90;;;;;;5094110;28;20191;-72
2023/05/30 07:03:49;;;;;;;11.57;4.93;;;17.30;11.80;;;;;;5094201;28;20627;-72
2023/05/30 07:06:14;;;;;;;14.95;5.10;;;17.40;99.90;;;;;;5093496;28;20243;-74
2023/05/30 07:08:40;;;;;;;12.00;5.47;;;18.00;99.90;;;;;;5092461;28;20182;-74
2023/05/30 07:11:06;;;;;;;15.50;5.60;;;18.90;99.90;;;;;;5092846;28;20622;-74
2023/05/30 07:13:32;;;;;;;12.48;5.28;;;19.00;57.00;;;;;;5092994;28;20666;-74
2023/05/30 07:15:58;;;;;;;11.93;4.63;;;19.40;1.00;;;;;;5092307;28;20160;-73
2023/05/30 07:18:23;;;;;;;12.48;4.28;;;19.40;99.90;;;;;;5092019;28;20172;-73
2023/05/30 07:20:49;;;;;;;12.55;3.95;;;19.10;1.00;;;;;;5093429;28;20186;-73
2023/05/30 07:23:15;;;;;;;9.90;4.57;;;18.80;1.00;;;;;;5093090;28;20700;-72
2023/05/30 07:25:41;;;;;;;12.43;5.18;;;18.90;1.00;;;;;;5093060;28;20634;-73
2023/05/30 07:28:06;;;;;;;12.45;4.32;;;20.30;99.90;;;;;;5092639;28;20164;-74
2023/05/30 07:30:32;;;;;;;14.82;4.57;;;19.70;99.90;;;;;;5092424;28;20519;-75
2023/05/30 07:32:58;;;;;;;11.95;4.57;;;19.90;99.90;;;;;;5092393;28;20294;-74
2023/05/30 07:35:23;;;;;;;9.98;4.40;;;21.10;1.00;;;;;;5086915;28;20588;-75
2023/05/30 07:37:52;;;;;;;10.60;4.88;;;21.40;1.00;;;;;;5082912;28;20184;-71
2023/05/30 07:40:18;;;;;;;10.73;4.40;;;21.80;1.00;;;;;;5076505;28;20179;-72
2023/05/30 07:42:47;;;;;;;9.60;3.88;;;21.00;1.00;;;;;;5091230;28;20232;-73
2023/05/30 07:45:13;;;;;;;9.05;4.25;;;20.70;1.00;;;;;;5094794;28;20215;-74
2023/05/30 07:47:38;;;;;;;7.22;4.05;;;21.30;1.00;;;;;;5112828;28;20666;-75
2023/05/30 07:50:06;;;;;;;12.32;4.18;;;21.90;1.00;;;;;;5112707;28;20175;-74
2023/05/30 07:52:32;;;;;;;8.60;4.03;;;23.40;99.90;;;;;;5112331;28;20185;-76
2023/05/30 07:54:58;;;;;;;8.98;4.30;;;21.60;1.00;;;;;;5112517;28;20174;-74
2023/05/30 07:57:23;;;;;;;12.00;4.65;;;21.00;1.00;;;;;;5112009;28;20336;-74
2023/05/30 07:59:49;;;;;;;12.48;4.55;;;21.40;1.00;;;;;;5112829;28;20568;-75
2023/05/30 08:02:15;;;;;;;12.48;5.10;;;22.10;99.90;;;;;;5098924;28;20202;-72
2023/05/30 08:04:41;;;;;;;11.32;5.13;;;23.50;99.90;;;;;;5092203;28;20203;-75
2023/05/30 08:07:07;;;;;;;9.27;4.63;;;23.40;99.90;;;;;;5089911;28;20196;-75
2023/05/30 08:09:33;;;;;;;7.20;3.80;;;22.90;99.90;;;;;;5091483;28;20227;-72
2023/05/30 08:12:01;;;;;;;12.48;5.10;;;22.40;99.90;;;;;;5092207;28;20220;-73
2023/05/30 08:14:27;;;;;;;9.55;4.03;;;21.90;99.90;;;;;;5091815;28;20180;-74
2023/05/30 08:16:53;;;;;;;11.75;3.92;;;21.80;99.90;;;;;;5092617;28;20191;-73
2023/05/30 08:19:18;;;;;;;12.43;4.18;;;21.70;99.90;;;;;;5091481;28;20221;-73
2023/05/30 08:21:44;;;;;;;13.77;4.47;;;20.70;99.90;;;;;;5091914;28;20174;-71
2023/05/30 08:24:12;;;;;;;9.43;4.18;;;21.00;99.90;;;;;;5092173;28;20569;-77
2023/05/30 08:26:39;;;;;;;11.65;4.50;;;21.50;99.90;;;;;;5092451;28;20235;-73
2023/05/30 08:29:05;;;;;;;18.08;4.40;;;22.00;99.90;;;;;;5090926;28;20176;-72
2023/05/30 08:31:31;;;;;;;13.98;4.00;;;22.10;99.90;;;;;;5092847;28;20250;-73
2023/05/30 08:33:57;;;;;;;9.48;4.40;;;22.20;99.90;;;;;;5100078;28;20301;-72
2023/05/30 08:36:22;;;;;;;10.23;4.90;;;21.70;99.90;;;;;;5112964;28;20210;-74
2023/05/30 08:38:53;;;;;;;11.15;4.43;;;21.50;99.90;;;;;;5111316;28;20186;-75
2023/05/30 08:41:20;;;;;;;7.93;4.22;;;20.80;99.90;;;;;;5112389;28;20580;-75
2023/05/30 08:43:46;;;;;;;8.65;4.43;;;20.50;99.90;;;;;;5112363;28;20293;-73
2023/05/30 08:46:13;;;;;;;8.93;4.85;;;21.00;99.90;;;;;;5112948;28;20656;-74
2023/05/30 08:48:41;;;;;;;10.77;4.82;;;21.60;99.90;;;;;;5097574;28;20176;-71
2023/05/30 08:51:11;;;;;;;9.35;4.20;;;22.70;99.90;;;;;;5092281;28;20156;-72
2023/05/30 08:53:42;;;;;;;10.13;4.40;;;21.60;99.90;;;;;;5094818;28;20269;-71
2023/05/30 08:56:13;;;;;;;9.50;4.38;;;21.60;99.90;;;;;;5111111;28;20656;-71
2023/05/30 08:58:45;;;;;;;9.10;4.45;;;21.60;99.90;;;;;;5111206;28;20192;-70
2023/05/30 09:01:11;;;;;;;7.70;4.13;;;21.90;99.90;;;;;;5112987;28;20199;-70
2023/05/30 09:03:42;;;;;;;7.70;4.10;;;23.30;99.90;;;;;;5112396;28;20306;-70
2023/05/30 09:06:08;;;;;;;11.23;4.28;;;23.00;99.90;;;;;;5112116;28;20206;-72
2023/05/30 09:08:36;;;;;;;9.45;4.70;;;21.50;99.90;;;;;;5112347;28;20167;-71
2023/05/30 09:11:03;;;;;;;8.07;4.45;;;21.20;99.90;;;;;;5112485;28;20243;-71
2023/05/30 09:13:28;;;;;;;8.20;4.53;;;21.70;99.90;;;;;;5112040;28;20186;-71
2023/05/30 09:15:54;;;;;;;11.73;4.82;;;21.80;99.90;;;;;;5080067;28;20181;-71
2023/05/30 09:18:20;;;;;;;10.15;4.50;;;21.20;99.90;;;;;;5091885;28;20192;-73
2023/05/30 09:20:46;;;;;;;8.60;4.60;;;21.70;99.90;;;;;;5086449;28;20219;-72
2023/05/30 09:23:12;;;;;;;11.45;4.97;;;22.40;99.90;;;;;;5071275;28;20175;-70
2023/05/30 09:25:45;;;;;;;9.20;4.65;;;22.30;99.90;;;;;;5071383;28;20283;-71
2023/05/30 09:28:12;;;;;;;8.27;4.72;;;22.10;99.90;;;;;;5071225;28;20210;-71
2023/05/30 09:30:59;;;;;;;7.35;4.57;;;21.30;99.90;;;;;;5071497;28;20632;-72
2023/05/30 09:33:40;;;;;;;7.18;4.35;;;21.50;99.90;;;;;;5071302;28;20218;-72
2023/05/30 09:36:12;;;;;;;8.57;4.35;;;22.10;99.90;;;;;;5071202;28;20235;-71
2023/05/30 09:38:38;;;;;;;11.88;5.70;;;22.00;99.90;;;;;;5097742;28;20649;-70
2023/05/30 09:41:03;;;;;;;7.32;4.80;;;22.30;99.90;;;;;;5111811;28;20167;-71
2023/05/30 09:43:31;;;;;;;8.30;4.82;;;23.00;99.90;;;;;;5110871;28;20237;-74
2023/05/30 09:46:05;;;;;;;9.98;5.22;;;22.70;99.90;;;;;;5111724;28;20160;-71
2023/05/30 09:48:32;;;;;;;10.98;5.45;;;22.20;99.90;;;;;;5111821;28;20337;-72
2023/05/30 09:51:02;;;;;;;8.93;5.38;;;21.30;99.90;;;;;;5112183;28;20243;-70
2023/05/30 09:53:29;;;;;;;9.38;5.10;;;21.60;99.90;;;;;;5111695;28;20212;-70
2023/05/30 09:55:55;;;;;;;11.95;5.00;;;22.30;99.90;;;;;;5112290;28;20179;-71
2023/05/30 09:58:22;;;;;;;8.35;4.70;;;22.80;99.90;;;;;;5112029;28;20164;-72
2023/05/30 10:00:51;;;;;;;13.05;6.38;;;21.80;99.90;;;;;;5111993;28;20283;-72
2023/05/30 10:03:18;;;;;;;10.88;6.30;;;21.40;99.90;;;;;;5111453;28;20248;-71
2023/05/30 10:05:44;;;;;;;8.35;5.50;;;22.00;99.90;;;;;;5112786;28;20164;-72
2023/05/30 10:08:11;;;;;;;9.23;5.78;;;22.40;99.90;;;;;;5115406;28;20300;-72
2023/05/30 10:10:39;;;;;;;13.70;5.82;;;21.90;99.90;;;;;;5114447;28;20175;-71
2023/05/30 10:13:05;;;;;;;8.98;5.43;;;22.70;99.90;;;;;;5115434;28;20636;-72
2023/05/30 10:15:30;;;;;;;7.97;5.43;;;22.50;99.90;;;;;;5115677;28;20167;-72
2023/05/30 10:18:08;;;;;;;11.65;6.03;;;21.60;99.90;;;;;;5097961;28;20164;-72
2023/05/30 10:20:43;;;;;;;10.65;6.40;;;21.30;99.90;;;;;;5095014;28;20472;-70
2023/05/30 10:23:12;;;;;;;9.38;5.63;;;22.80;99.90;;;;;;5095045;28;20449;-73
2023/05/30 10:25:46;;;;;;;12.88;5.45;;;22.20;99.90;;;;;;5094594;28;20172;-72
2023/05/30 10:28:18;;;;;;;10.63;5.55;;;21.80;99.90;;;;;;5095038;28;20171;-73
2023/05/30 10:30:46;;;;;;;14.40;6.63;;;22.30;99.90;;;;;;5095196;28;20207;-70
2023/05/30 10:33:14;;;;;;;11.55;6.50;;;22.20;99.90;;;;;;5095102;28;20239;-71
2023/05/30 10:35:40;;;;;;;13.48;6.72;;;21.20;99.90;;;;;;5094533;28;20164;-72
2023/05/30 10:38:08;;;;;;;13.32;6.63;;;21.60;99.90;;;;;;5094186;28;20262;-73
2023/05/30 10:40:36;;;;;;;11.05;5.93;;;23.00;99.90;;;;;;5093370;28;20183;-70
2023/05/30 10:43:21;;;;;;;12.02;6.70;;;23.00;99.90;;;;;;5093870;28;20690;-71
2023/05/30 10:46:14;;;;;;;10.70;6.50;;;21.90;99.90;;;;;;5094290;28;20221;-71
2023/05/30 10:49:02;;;;;;;10.80;6.72;;;21.30;99.90;;;;;;5092996;28;20204;-74
2023/05/30 10:51:31;;;;;;;11.70;7.15;;;22.10;99.90;;;;;;5093126;28;20179;-74
2023/05/30 10:54:00;;;;;;;11.68;6.35;;;22.50;99.90;;;;;;5092645;28;20183;-73
2023/05/30 10:56:31;;;;;;;11.82;6.55;;;22.20;99.90;;;;;;5094569;28;20522;-69
2023/05/30 10:58:57;;;;;;;13.70;6.90;;;22.10;99.90;;;;;;5093628;28;20191;-72
2023/05/30 11:01:31;;;;;;;14.27;6.60;;;22.30;99.90;;;;;;5094550;28;20280;-72
2023/05/30 11:04:13;;;;;;;18.35;7.15;;;22.70;99.90;;;;;;5094113;28;20218;-71
2023/05/30 11:06:45;;;;;;;10.23;6.68;;;22.90;99.90;;;;;;5094222;28;20191;-73
2023/05/30 11:09:14;;;;;;;10.38;6.10;;;22.90;99.90;;;;;;5093752;28;20168;-72
2023/05/30 11:11:45;;;;;;;12.07;6.55;;;23.10;99.90;;;;;;5092691;28;20259;-71
2023/05/30 11:14:12;;;;;;;11.05;7.30;;;23.40;99.90;;;;;;5093049;28;20168;-72
2023/05/30 11:17:06;;;;;;;9.05;7.07;;;21.80;99.90;;;;;;5094107;28;20572;-72
2023/05/30 11:19:38;;;;;;;14.80;7.97;;;21.60;1.00;;;;;;5093975;28;20179;-70
2023/05/30 11:22:17;;;;;;;13.52;7.10;;;21.50;1.00;;;;;;5093117;28;20179;-70
2023/05/30 11:24:43;;;;;;;10.10;6.75;;;22.20;99.90;;;;;;5094820;28;20663;-71
2023/05/30 11:27:12;;;;;;;17.80;7.32;;;21.20;99.90;;;;;;5094332;28;20650;-70
2023/05/30 11:29:47;;;;;;;10.70;6.78;;;21.40;1.00;;;;;;5092193;28;20172;-70
2023/05/30 11:32:17;;;;;;;13.18;6.80;;;21.30;1.00;;;;;;5093286;28;20171;-71
2023/05/30 11:34:43;;;;;;;11.98;7.07;;;20.50;1.00;;;;;;5092825;28;20183;-70
2023/05/30 11:37:09;;;;;;;11.73;7.90;;;20.80;1.00;;;;;;5092372;28;20270;-70
2023/05/30 11:39:36;;;;;;;12.85;7.70;;;20.70;1.00;;;;;;5093802;28;20615;-75
2023/05/30 11:42:03;;;;;;;11.18;6.95;;;20.70;1.00;;;;;;5094363;28;20205;-72
2023/05/30 11:44:32;;;;;;;13.30;7.20;;;20.90;1.00;;;;;;5093662;28;20667;-71
2023/05/30 11:47:01;;;;;;;11.32;7.47;;;20.50;1.00;;;;;;5106492;28;20189;-70
2023/05/30 11:49:27;;;;;;;13.50;8.10;;;19.80;99.90;;;;;;5113378;28;20393;-72
2023/05/30 11:51:53;;;;;;;12.65;8.27;;;20.10;99.90;;;;;;5113388;28;20740;-71
2023/05/30 11:54:22;;;;;;;14.85;7.70;;;20.20;99.90;;;;;;5113745;28;20172;-71
2023/05/30 11:56:50;;;;;;;12.05;7.85;;;20.60;1.00;;;;;;5112449;28;20170;-71
2023/05/30 11:59:24;;;;;;;15.25;8.77;;;20.50;1.00;;;;;;5113785;28;20693;-71
2023/05/30 12:01:58;;;;;;;9.60;7.95;;;20.20;67.00;;;;;;5113442;28;20258;-71
2023/05/30 12:04:25;;;;;;;14.05;8.90;;;20.20;15.40;;;;;;5111830;28;20278;-73
2023/05/30 12:06:52;;;;;;;12.38;8.77;;;20.10;99.90;;;;;;5107038;28;20175;-71
2023/05/30 12:09:17;;;;;;;11.70;8.85;;;20.40;1.00;;;;;;5092724;28;20199;-70
2023/05/30 12:11:59;;;;;;;14.80;9.55;;;20.30;1.00;;;;;;5091177;28;20210;-72
2023/05/30 12:14:52;;;;;;;12.65;8.30;;;20.20;99.90;;;;;;5095627;28;20178;-72
2023/05/30 12:17:20;;;;;;;11.25;8.80;;;20.80;1.00;;;;;;5090355;28;20202;-70
2023/05/30 12:19:46;;;;;;;11.75;8.38;;;20.70;1.00;;;;;;5112320;28;20221;-71
2023/05/30 12:22:15;;;;;;;10.77;8.07;;;21.10;1.00;;;;;;5113263;28;20214;-72
2023/05/30 12:24:41;;;;;;;12.07;8.23;;;20.70;1.00;;;;;;5113331;28;20233;-72
2023/05/30 12:27:16;;;;;;;13.82;8.25;;;20.50;1.00;;;;;;5111444;28;20721;-72
2023/05/30 12:29:42;;;;;;;10.23;8.40;;;20.40;1.00;;;;;;5112532;28;20167;-72
2023/05/30 12:32:08;;;;;;;14.75;9.18;;;20.40;1.00;;;;;;5110953;28;20250;-72
2023/05/30 12:34:42;;;;;;;12.68;8.57;;;20.40;1.00;;;;;;5112753;28;20203;-71
2023/05/30 12:37:10;;;;;;;16.25;8.75;;;20.40;1.00;;;;;;5112875;28;20672;-71
2023/05/30 12:39:53;;;;;;;19.75;9.05;;;20.50;1.00;;;;;;5113064;28;20175;-70
2023/05/30 12:42:24;;;;;;;14.57;8.70;;;21.20;1.00;;;;;;5113031;28;20170;-70
2023/05/30 12:44:57;;;;;;;11.80;8.68;;;20.50;1.00;;;;;;5112894;28;20202;-70
2023/05/30 12:47:24;;;;;;;15.82;8.57;;;20.50;1.00;;;;;;5112820;28;20725;-70